Time;durP1;ratioP1;P1;durP2;ratioP2;P2;SDS_P1;SDS_P2;PMS_P1;PMS_P2;Temp;Humidity;BMP_temperature;BMP_pressure;BME280_temperature;BME280_humidity;BME280_pressure;Samples;Min_cycle;Max_cycle;Signal;HPM_P1;HPM_P2
2021/12/07 00:01:54;;;;;;;19.10;11.52;;;;;;;;;;4982088;28;20511;-78
2021/12/07 00:04:20;;;;;;;20.20;11.35;;;;;;;;;;4983226;28;20582;-77
2021/12/07 00:06:45;;;;;;;23.60;11.32;;;;;;;;;;4982990;28;20536;-78
2021/12/07 00:09:13;;;;;;;36.95;12.23;;;;;;;;;;4982148;28;21091;-77
2021/12/07 00:11:39;;;;;;;36.78;11.77;;;;;;;;;;4982240;28;20038;-77
2021/12/07 00:14:14;;;;;;;40.53;12.90;;;;;;;;;;4982512;28;20117;-77
2021/12/07 00:16:42;;;;;;;46.00;13.05;;;;;;;;;;4982975;28;20070;-77
2021/12/07 00:19:08;;;;;;;77.65;12.85;;;;;;;;;;4983375;28;20039;-77
2021/12/07 00:21:34;;;;;;;85.95;12.85;;;;;;;;;;4982455;28;20922;-77
2021/12/07 00:24:00;;;;;;;72.40;13.00;;;;;;;;;;4983282;28;20034;-76
2021/12/07 00:26:25;;;;;;;73.07;13.57;;;;;;;;;;4982328;28;20039;-77
2021/12/07 00:28:51;;;;;;;57.10;13.45;;;;;;;;;;4982756;28;20046;-77
2021/12/07 00:31:30;;;;;;;126.22;14.13;;;;;;;;;;4981378;28;20995;-77
2021/12/07 00:34:13;;;;;;;59.92;13.15;;;;;;;;;;4981401;28;20042;-77
2021/12/07 00:36:45;;;;;;;103.25;14.52;;;;;;;;;;4981652;28;20496;-77
2021/12/07 00:39:13;;;;;;;33.50;12.60;;;;;;;;;;4981708;28;20061;-77
2021/12/07 00:41:39;;;;;;;29.73;11.88;;;;;;;;;;4983068;28;20073;-77
2021/12/07 00:44:05;;;;;;;49.13;12.23;;;;;;;;;;4980504;28;20070;-78
2021/12/07 00:46:31;;;;;;;84.70;11.85;;;;;;;;;;4979567;28;20109;-77
2021/12/07 00:48:57;;;;;;;43.58;11.10;;;;;;;;;;4982633;28;20408;-77
2021/12/07 00:51:22;;;;;;;71.20;10.95;;;;;;;;;;4982316;28;20826;-78
2021/12/07 00:53:48;;;;;;;227.18;14.70;;;;;;;;;;4981830;28;20038;-77
2021/12/07 00:56:15;;;;;;;80.50;12.35;;;;;;;;;;4982551;28;20141;-78
2021/12/07 00:58:40;;;;;;;89.85;11.43;;;;;;;;;;4979996;28;20133;-77
2021/12/07 01:01:12;;;;;;;52.25;10.90;;;;;;;;;;4985359;28;20680;-77
2021/12/07 01:03:39;;;;;;;38.42;10.80;;;;;;;;;;4979547;28;20045;-77
2021/12/07 01:06:27;;;;;;;31.10;9.68;;;;;;;;;;4981400;28;20026;-78
2021/12/07 01:25:25;;;;;;;51.45;11.93;;;;;;;;;;4983156;28;20026;-77
2021/12/07 01:27:52;;;;;;;15.75;9.85;;;;;;;;;;4979188;28;20065;-77
2021/12/07 01:30:22;;;;;;;18.48;10.48;;;;;;;;;;4962874;28;20122;-77
2021/12/07 01:46:21;;;;;;;14.13;9.48;;;;;;;;;;5063642;28;20023;-77
2021/12/07 01:59:35;;;;;;;15.25;9.77;;;;;;;;;;4980597;28;20035;-78
2021/12/07 02:02:10;;;;;;;15.80;10.25;;;;;;;;;;4981925;28;20587;-77
2021/12/07 02:04:37;;;;;;;16.27;9.90;;;;;;;;;;4979074;28;20038;-77
2021/12/07 02:07:06;;;;;;;15.18;9.45;;;;;;;;;;4978956;28;20038;-78
2021/12/07 02:09:35;;;;;;;13.85;8.98;;;;;;;;;;4988952;28;20515;-78
2021/12/07 02:12:06;;;;;;;14.05;9.07;;;;;;;;;;4980263;28;20031;-77
2021/12/07 02:14:32;;;;;;;14.98;8.40;;;;;;;;;;4981047;28;20061;-77
2021/12/07 02:17:02;;;;;;;15.77;9.23;;;;;;;;;;4982092;28;20413;-77
2021/12/07 02:19:29;;;;;;;15.18;10.02;;;;;;;;;;4980796;28;20035;-77
2021/12/07 02:21:56;;;;;;;16.63;10.05;;;;;;;;;;4980755;28;20045;-77
2021/12/07 02:24:27;;;;;;;20.00;9.55;;;;;;;;;;4977641;28;20030;-77
2021/12/07 02:26:53;;;;;;;16.85;10.70;;;;;;;;;;4964747;28;20420;-77
2021/12/07 02:29:20;;;;;;;16.80;9.90;;;;;;;;;;4980880;28;20661;-77
2021/12/07 02:31:47;;;;;;;14.40;9.23;;;;;;;;;;4964031;28;20373;-77
2021/12/07 02:34:13;;;;;;;17.38;9.25;;;;;;;;;;4984578;28;20038;-77
2021/12/07 02:36:40;;;;;;;12.55;8.77;;;;;;;;;;4985838;28;20039;-77
2021/12/07 02:39:08;;;;;;;14.50;9.45;;;;;;;;;;4991278;28;20028;-77
2021/12/07 02:41:35;;;;;;;16.13;9.77;;;;;;;;;;4989369;28;20072;-77
2021/12/07 02:44:05;;;;;;;16.58;9.98;;;;;;;;;;4981932;28;20129;-77
2021/12/07 02:46:32;;;;;;;13.27;8.60;;;;;;;;;;4997909;28;20542;-77
2021/12/07 02:48:57;;;;;;;15.57;9.88;;;;;;;;;;4983103;28;20039;-78
2021/12/07 02:51:23;;;;;;;12.00;8.50;;;;;;;;;;4986041;28;20030;-77
2021/12/07 02:53:49;;;;;;;12.95;7.75;;;;;;;;;;4999302;28;20064;-77
2021/12/07 02:56:15;;;;;;;15.43;8.95;;;;;;;;;;4979916;28;20049;-77
2021/12/07 02:58:43;;;;;;;14.18;8.50;;;;;;;;;;4981826;28;20037;-77
2021/12/07 03:01:19;;;;;;;16.02;9.25;;;;;;;;;;4982713;28;20038;-77
2021/12/07 03:06:38;;;;;;;13.20;9.45;;;;;;;;;;4980317;28;20030;-77
2021/12/07 03:28:18;;;;;;;16.58;9.07;;;;;;;;;;4980097;28;20038;-77
2021/12/07 03:30:44;;;;;;;14.35;8.98;;;;;;;;;;4982784;28;20051;-77
2021/12/07 03:33:11;;;;;;;11.85;8.02;;;;;;;;;;4981642;28;20034;-77
2021/12/07 03:35:37;;;;;;;11.05;8.07;;;;;;;;;;4996393;28;20041;-77
2021/12/07 03:38:05;;;;;;;13.77;8.65;;;;;;;;;;4981613;28;20599;-78
2021/12/07 03:40:30;;;;;;;10.70;7.32;;;;;;;;;;4982204;28;20045;-77
2021/12/07 03:42:57;;;;;;;8.25;6.20;;;;;;;;;;4965229;28;20038;-77
2021/12/07 03:45:24;;;;;;;10.77;6.45;;;;;;;;;;4983332;28;20393;-77
2021/12/07 03:47:52;;;;;;;6.97;5.28;;;;;;;;;;4980219;28;20069;-77
2021/12/07 03:50:20;;;;;;;8.48;5.88;;;;;;;;;;4983399;28;20091;-77
2021/12/07 03:52:51;;;;;;;8.05;5.68;;;;;;;;;;4985122;28;20045;-77
2021/12/07 03:55:18;;;;;;;7.75;5.47;;;;;;;;;;4967007;28;20507;-77
2021/12/07 03:57:45;;;;;;;12.13;5.57;;;;;;;;;;4983898;28;20042;-77
2021/12/07 04:00:14;;;;;;;7.15;5.15;;;;;;;;;;4982897;28;20042;-77
2021/12/07 04:02:41;;;;;;;8.77;6.00;;;;;;;;;;4984183;28;20100;-77
2021/12/07 04:05:14;;;;;;;10.55;6.03;;;;;;;;;;4970176;28;20190;-77
2021/12/07 04:07:41;;;;;;;10.70;5.18;;;;;;;;;;4986897;28;20503;-77
2021/12/07 04:10:11;;;;;;;8.98;5.32;;;;;;;;;;4992576;28;20120;-77
2021/12/07 04:12:37;;;;;;;9.88;5.47;;;;;;;;;;4965895;28;20041;-77
2021/12/07 04:15:06;;;;;;;7.13;4.93;;;;;;;;;;4985257;28;20041;-77
2021/12/07 04:17:32;;;;;;;7.47;4.10;;;;;;;;;;4980710;28;20048;-78
2021/12/07 04:19:57;;;;;;;5.28;4.35;;;;;;;;;;4984785;28;20038;-78
2021/12/07 04:22:23;;;;;;;9.07;4.90;;;;;;;;;;4979450;28;20041;-78
2021/12/07 04:24:50;;;;;;;6.32;4.72;;;;;;;;;;4984927;28;20038;-78
2021/12/07 04:27:16;;;;;;;6.57;4.38;;;;;;;;;;4981171;28;20137;-77
2021/12/07 04:29:41;;;;;;;8.55;4.38;;;;;;;;;;4982935;28;20049;-78
2021/12/07 04:32:07;;;;;;;5.70;4.22;;;;;;;;;;4983121;28;20042;-77
2021/12/07 04:34:32;;;;;;;5.07;4.50;;;;;;;;;;4982411;28;20034;-78
2021/12/07 04:36:58;;;;;;;7.10;4.70;;;;;;;;;;4981501;28;20442;-78
2021/12/07 04:39:23;;;;;;;9.15;4.53;;;;;;;;;;4982915;28;20045;-77
2021/12/07 04:41:50;;;;;;;5.00;4.13;;;;;;;;;;4981384;28;20107;-78
2021/12/07 04:44:16;;;;;;;4.55;3.63;;;;;;;;;;4981907;28;20065;-78
2021/12/07 04:46:54;;;;;;;5.07;3.47;;;;;;;;;;4981943;28;20585;-77
2021/12/07 04:49:49;;;;;;;4.78;3.13;;;;;;;;;;4983000;28;20053;-78
2021/12/07 04:57:48;;;;;;;3.00;2.70;;;;;;;;;;4978137;28;20045;-78
2021/12/07 05:00:22;;;;;;;3.00;2.67;;;;;;;;;;4979316;28;20030;-78
2021/12/07 05:02:54;;;;;;;5.68;2.60;;;;;;;;;;4981654;28;20446;-78
2021/12/07 05:05:22;;;;;;;2.90;2.60;;;;;;;;;;4982045;28;20998;-78
2021/12/07 05:07:51;;;;;;;3.50;3.00;;;;;;;;;;4980221;28;20111;-77
2021/12/07 05:15:29;;;;;;;3.00;2.67;;;;;;;;;;4978156;28;20034;-77
2021/12/07 05:39:30;;;;;;;2.10;2.00;;;;;;;;;;4986715;28;20045;-77
2021/12/07 05:41:56;;;;;;;2.05;1.90;;;;;;;;;;4981275;28;20030;-76
2021/12/07 05:44:22;;;;;;;5.85;2.35;;;;;;;;;;4978084;28;20580;-77
2021/12/07 05:46:47;;;;;;;6.03;2.42;;;;;;;;;;4981870;28;20487;-77
2021/12/07 05:49:12;;;;;;;2.95;2.28;;;;;;;;;;4980640;28;20034;-76
2021/12/07 05:51:38;;;;;;;2.15;1.95;;;;;;;;;;4981271;28;20507;-77
2021/12/07 05:54:03;;;;;;;1.33;1.23;;;;;;;;;;4979020;28;20054;-77
2021/12/07 05:56:29;;;;;;;1.98;1.67;;;;;;;;;;4979857;28;20098;-77
2021/12/07 05:58:54;;;;;;;0.95;0.95;;;;;;;;;;4981324;28;20046;-77
2021/12/07 06:01:20;;;;;;;0.95;0.57;;;;;;;;;;4979305;28;20125;-77
2021/12/07 06:03:45;;;;;;;1.10;1.08;;;;;;;;;;4979034;28;20125;-77
2021/12/07 06:06:11;;;;;;;1.40;1.30;;;;;;;;;;4980886;28;20137;-77
2021/12/07 06:08:36;;;;;;;1.52;1.40;;;;;;;;;;4983751;28;20107;-78
2021/12/07 06:11:02;;;;;;;1.20;1.10;;;;;;;;;;4983601;28;20042;-77
2021/12/07 06:13:27;;;;;;;1.20;1.10;;;;;;;;;;4984775;28;20077;-77
2021/12/07 06:15:53;;;;;;;2.60;1.08;;;;;;;;;;4975506;28;20134;-78
2021/12/07 06:18:19;;;;;;;1.23;1.05;;;;;;;;;;4983177;28;20042;-77
2021/12/07 06:20:45;;;;;;;1.42;1.10;;;;;;;;;;4980881;28;20038;-77
2021/12/07 06:23:16;;;;;;;1.10;0.85;;;;;;;;;;4977477;28;20381;-78
2021/12/07 06:25:43;;;;;;;4.10;1.38;;;;;;;;;;4980397;28;20042;-78
2021/12/07 06:28:08;;;;;;;1.30;1.10;;;;;;;;;;4984145;28;20070;-76
2021/12/07 06:30:34;;;;;;;1.52;1.30;;;;;;;;;;4980630;28;20111;-76
2021/12/07 06:32:59;;;;;;;1.10;1.10;;;;;;;;;;4983256;28;20179;-75
2021/12/07 06:35:25;;;;;;;1.17;1.08;;;;;;;;;;4980683;28;20119;-76
2021/12/07 06:37:51;;;;;;;0.98;0.98;;;;;;;;;;4984061;28;20489;-76
2021/12/07 06:40:16;;;;;;;1.17;0.80;;;;;;;;;;4982719;28;20065;-77
2021/12/07 06:42:41;;;;;;;0.73;0.73;;;;;;;;;;4983367;28;20065;-76
2021/12/07 06:45:10;;;;;;;1.15;1.05;;;;;;;;;;4983965;28;20034;-76
2021/12/07 06:47:36;;;;;;;0.88;0.88;;;;;;;;;;4978943;28;20113;-76
2021/12/07 06:50:05;;;;;;;0.82;0.82;;;;;;;;;;4983197;28;20199;-75
2021/12/07 06:52:30;;;;;;;1.40;1.30;;;;;;;;;;4983421;28;20117;-75
2021/12/07 06:54:58;;;;;;;1.40;1.30;;;;;;;;;;4983886;28;20194;-74
2021/12/07 06:57:24;;;;;;;1.02;0.98;;;;;;;;;;4995552;28;20038;-76
2021/12/07 06:59:50;;;;;;;1.38;1.13;;;;;;;;;;4995775;28;20046;-74
2021/12/07 07:02:15;;;;;;;0.80;0.80;;;;;;;;;;4984147;28;20397;-75
2021/12/07 07:04:41;;;;;;;1.40;1.30;;;;;;;;;;4981943;28;20034;-75
2021/12/07 07:07:06;;;;;;;1.52;1.10;;;;;;;;;;4982778;28;20032;-75
2021/12/07 07:09:31;;;;;;;3.70;0.77;;;;;;;;;;4983401;28;20065;-74
2021/12/07 07:11:57;;;;;;;3.80;1.38;;;;;;;;;;4983043;28;20038;-74
2021/12/07 07:14:22;;;;;;;0.90;0.90;;;;;;;;;;4982760;28;20119;-74
2021/12/07 07:16:48;;;;;;;1.35;1.25;;;;;;;;;;4982437;28;20061;-74
2021/12/07 07:19:13;;;;;;;1.30;1.05;;;;;;;;;;4979583;28;20124;-74
2021/12/07 07:21:39;;;;;;;1.42;1.20;;;;;;;;;;4981421;28;20099;-74
2021/12/07 07:24:04;;;;;;;1.67;1.58;;;;;;;;;;4982812;28;20133;-74
2021/12/07 07:26:30;;;;;;;0.80;0.80;;;;;;;;;;4981455;28;20057;-73
2021/12/07 07:28:56;;;;;;;1.60;1.38;;;;;;;;;;4983241;28;20496;-73
2021/12/07 07:31:22;;;;;;;1.23;1.15;;;;;;;;;;4981359;28;20069;-75
2021/12/07 07:33:47;;;;;;;1.17;0.95;;;;;;;;;;4984463;28;21117;-74
2021/12/07 07:36:13;;;;;;;0.88;0.88;;;;;;;;;;4981000;28;20035;-73
2021/12/07 07:38:38;;;;;;;0.77;0.77;;;;;;;;;;4983749;28;20413;-72
2021/12/07 07:41:04;;;;;;;1.70;1.00;;;;;;;;;;4981890;28;20042;-74
2021/12/07 07:43:29;;;;;;;0.88;0.88;;;;;;;;;;4983794;28;20137;-74
2021/12/07 07:46:10;;;;;;;0.90;0.90;;;;;;;;;;4980276;28;20050;-75
2021/12/07 07:48:36;;;;;;;0.90;0.90;;;;;;;;;;4983975;28;20069;-73
2021/12/07 07:51:01;;;;;;;0.80;0.80;;;;;;;;;;4981001;28;20107;-73
2021/12/07 07:53:27;;;;;;;1.30;1.20;;;;;;;;;;4982795;28;20060;-73
2021/12/07 07:55:55;;;;;;;1.20;1.17;;;;;;;;;;4979819;28;20035;-72
2021/12/07 07:58:21;;;;;;;1.30;1.08;;;;;;;;;;4981985;28;20044;-73
2021/12/07 08:00:48;;;;;;;1.63;1.10;;;;;;;;;;4981515;28;20039;-73
2021/12/07 08:03:14;;;;;;;2.50;1.40;;;;;;;;;;4982674;28;20041;-74
2021/12/07 08:05:40;;;;;;;1.33;1.23;;;;;;;;;;4981851;28;20455;-73
2021/12/07 08:08:06;;;;;;;1.58;1.27;;;;;;;;;;4982190;28;20027;-74
2021/12/07 08:10:32;;;;;;;1.27;0.85;;;;;;;;;;4981060;28;20404;-73
2021/12/07 08:13:01;;;;;;;1.02;1.00;;;;;;;;;;4983412;28;20042;-73
2021/12/07 08:15:28;;;;;;;1.50;1.20;;;;;;;;;;4979872;28;20731;-72
2021/12/07 08:17:54;;;;;;;1.45;1.30;;;;;;;;;;4983642;28;20109;-73
2021/12/07 08:20:22;;;;;;;1.30;1.20;;;;;;;;;;4978907;28;20040;-74
2021/12/07 08:22:48;;;;;;;2.10;1.70;;;;;;;;;;4983509;28;20039;-75
2021/12/07 08:25:14;;;;;;;3.50;0.93;;;;;;;;;;4979756;28;20027;-74
2021/12/07 08:27:40;;;;;;;1.95;0.82;;;;;;;;;;4981782;28;20106;-73
2021/12/07 08:30:08;;;;;;;2.05;1.05;;;;;;;;;;4981344;28;20080;-73
2021/12/07 08:32:34;;;;;;;1.30;1.20;;;;;;;;;;4981269;28;20042;-74
2021/12/07 08:35:00;;;;;;;1.38;1.02;;;;;;;;;;4986289;28;20030;-74
2021/12/07 08:37:25;;;;;;;3.47;1.45;;;;;;;;;;4984992;28;20091;-74
2021/12/07 08:39:51;;;;;;;1.23;1.23;;;;;;;;;;4984338;28;20038;-76
2021/12/07 08:42:17;;;;;;;4.65;1.30;;;;;;;;;;4985596;28;20041;-75
2021/12/07 08:44:43;;;;;;;0.80;0.80;;;;;;;;;;4982803;28;20048;-75
2021/12/07 08:47:08;;;;;;;1.00;0.98;;;;;;;;;;4980279;28;20041;-75
2021/12/07 08:49:34;;;;;;;1.48;0.90;;;;;;;;;;4982484;28;20049;-75
2021/12/07 08:52:00;;;;;;;2.65;1.00;;;;;;;;;;4980861;28;20038;-76
2021/12/07 08:59:35;;;;;;;1.27;1.20;;;;;;;;;;4981648;28;20041;-74
2021/12/07 08:59:56;;;;;;;2.47;1.50;;;;;;;;;;4981443;28;20049;-75
2021/12/07 09:02:23;;;;;;;3.58;1.67;;;;;;;;;;4981037;28;20047;-77
2021/12/07 09:04:50;;;;;;;0.93;0.85;;;;;;;;;;4981845;28;20034;-76
2021/12/07 09:07:16;;;;;;;1.10;1.10;;;;;;;;;;4981219;28;20551;-75
2021/12/07 09:09:43;;;;;;;0.93;0.75;;;;;;;;;;4981323;28;20105;-75
2021/12/07 09:12:10;;;;;;;1.17;1.10;;;;;;;;;;4981896;28;20576;-76
2021/12/07 09:14:36;;;;;;;1.02;1.00;;;;;;;;;;4981892;28;20066;-77
2021/12/07 09:17:04;;;;;;;2.30;1.70;;;;;;;;;;4981496;28;20034;-75
2021/12/07 09:19:29;;;;;;;1.17;1.17;;;;;;;;;;4980612;28;20377;-76
2021/12/07 09:21:55;;;;;;;5.05;0.95;;;;;;;;;;4981698;28;20042;-76
2021/12/07 09:24:21;;;;;;;1.05;1.05;;;;;;;;;;4981181;28;20115;-75
2021/12/07 09:26:48;;;;;;;1.48;1.13;;;;;;;;;;4980183;28;20068;-74
2021/12/07 09:29:14;;;;;;;1.10;1.10;;;;;;;;;;4980354;28;20041;-77
2021/12/07 09:31:40;;;;;;;1.30;1.20;;;;;;;;;;4978973;28;20034;-74
2021/12/07 09:34:06;;;;;;;0.93;0.93;;;;;;;;;;4980969;28;20036;-76
2021/12/07 09:36:33;;;;;;;0.90;0.90;;;;;;;;;;4979349;28;20031;-77
2021/12/07 09:38:59;;;;;;;1.00;1.00;;;;;;;;;;4982395;28;20065;-74
2021/12/07 09:41:24;;;;;;;1.20;0.93;;;;;;;;;;4978189;28;20034;-74
2021/12/07 09:43:50;;;;;;;1.08;0.95;;;;;;;;;;4980793;28;20527;-77
2021/12/07 09:46:16;;;;;;;1.58;1.00;;;;;;;;;;4978749;28;20961;-74
2021/12/07 09:48:43;;;;;;;1.90;1.77;;;;;;;;;;4979600;28;20426;-75
2021/12/07 09:51:14;;;;;;;1.10;0.93;;;;;;;;;;4979446;28;20125;-75
2021/12/07 09:53:39;;;;;;;1.00;1.00;;;;;;;;;;4979533;28;20079;-74
2021/12/07 09:56:07;;;;;;;0.90;0.90;;;;;;;;;;4979410;28;20036;-73
2021/12/07 09:58:33;;;;;;;0.90;0.90;;;;;;;;;;4980082;28;20121;-74
2021/12/07 10:00:59;;;;;;;1.33;1.20;;;;;;;;;;4978070;28;20488;-73
2021/12/07 10:03:25;;;;;;;0.98;0.98;;;;;;;;;;4980756;28;20046;-75
2021/12/07 10:05:51;;;;;;;1.83;1.35;;;;;;;;;;4979481;28;20076;-74
2021/12/07 10:08:16;;;;;;;1.02;0.98;;;;;;;;;;4978848;28;20083;-74
2021/12/07 10:10:48;;;;;;;1.98;1.27;;;;;;;;;;4977757;28;20034;-76
2021/12/07 10:13:15;;;;;;;1.10;1.10;;;;;;;;;;4978412;28;20049;-76
2021/12/07 10:15:42;;;;;;;1.45;1.30;;;;;;;;;;4978366;28;20397;-75
2021/12/07 10:18:10;;;;;;;3.47;1.58;;;;;;;;;;4982286;28;20020;-74
2021/12/07 10:21:03;;;;;;;1.33;1.23;;;;;;;;;;4981845;28;20049;-75
2021/12/07 10:23:50;;;;;;;1.20;1.10;;;;;;;;;;4995075;28;20136;-75
2021/12/07 10:26:21;;;;;;;1.10;0.90;;;;;;;;;;4979161;28;20030;-76
2021/12/07 10:28:52;;;;;;;1.40;1.00;;;;;;;;;;4980451;28;20035;-72
2021/12/07 10:31:25;;;;;;;0.88;0.88;;;;;;;;;;4979154;28;20062;-74
2021/12/07 10:33:54;;;;;;;0.80;0.77;;;;;;;;;;4982091;28;20039;-74
2021/12/07 10:36:32;;;;;;;4.15;1.38;;;;;;;;;;4977826;28;20052;-75
2021/12/07 10:38:57;;;;;;;2.00;1.10;;;;;;;;;;4982021;28;20042;-74
2021/12/07 10:41:25;;;;;;;1.13;1.00;;;;;;;;;;4978771;28;20030;-75
2021/12/07 10:44:25;;;;;;;1.00;0.95;;;;;;;;;;4981791;28;20049;-74
2021/12/07 10:46:56;;;;;;;2.63;1.23;;;;;;;;;;4967927;28;20055;-75
2021/12/07 10:49:29;;;;;;;2.60;1.30;;;;;;;;;;4978478;28;20050;-76
2021/12/07 10:52:00;;;;;;;1.50;1.13;;;;;;;;;;4979912;28;20468;-74
2021/12/07 10:54:27;;;;;;;1.05;1.02;;;;;;;;;;4983330;28;20091;-71
2021/12/07 10:56:53;;;;;;;1.15;1.05;;;;;;;;;;4983638;28;20030;-72
2021/12/07 10:59:18;;;;;;;1.33;1.20;;;;;;;;;;4983380;28;20087;-73
2021/12/07 11:01:47;;;;;;;1.55;1.45;;;;;;;;;;4981511;28;20038;-73
2021/12/07 11:04:22;;;;;;;0.93;0.90;;;;;;;;;;4983603;28;20130;-72
2021/12/07 11:07:17;;;;;;;0.82;0.82;;;;;;;;;;4983182;28;20096;-73
2021/12/07 11:10:18;;;;;;;1.20;1.00;;;;;;;;;;4982512;28;20100;-74
2021/12/07 11:15:37;;;;;;;;;;;;;;;;;;4981384;28;20034;-74
2021/12/07 11:18:07;;;;;;;1.45;1.13;;;;;;;;;;4984450;28;19928;-74
2021/12/07 11:20:34;;;;;;;1.70;0.70;;;;;;;;;;4980160;28;20042;-74
2021/12/07 11:23:16;;;;;;;1.00;1.00;;;;;;;;;;4984685;28;20408;-73
2021/12/07 11:29:39;;;;;;;3.83;1.45;;;;;;;;;;4980964;28;20039;-73
2021/12/07 11:31:36;;;;;;;1.95;1.40;;;;;;;;;;4980193;28;20042;-73
2021/12/07 11:34:23;;;;;;;2.63;1.50;;;;;;;;;;4980840;28;20042;-72
2021/12/07 11:36:55;;;;;;;3.30;1.05;;;;;;;;;;4983399;28;20099;-72
2021/12/07 11:39:26;;;;;;;2.65;1.88;;;;;;;;;;4982237;28;20400;-72
2021/12/07 11:41:58;;;;;;;0.80;0.80;;;;;;;;;;4984600;28;20045;-71
2021/12/07 11:44:23;;;;;;;2.58;1.05;;;;;;;;;;4981680;28;20122;-72
2021/12/07 11:46:51;;;;;;;2.45;1.20;;;;;;;;;;4983006;28;20109;-73
2021/12/07 11:49:20;;;;;;;0.75;0.75;;;;;;;;;;4982201;28;20037;-73
2021/12/07 11:51:49;;;;;;;1.70;1.33;;;;;;;;;;4981245;28;20042;-72
2021/12/07 11:54:16;;;;;;;0.80;0.80;;;;;;;;;;4981251;28;20042;-71
2021/12/07 11:56:44;;;;;;;3.47;1.23;;;;;;;;;;4982007;28;20043;-73
2021/12/07 11:59:11;;;;;;;4.53;1.55;;;;;;;;;;4981184;28;20053;-74
2021/12/07 12:01:37;;;;;;;0.90;0.90;;;;;;;;;;4982717;28;20044;-73
2021/12/07 12:04:03;;;;;;;1.20;0.88;;;;;;;;;;4981628;28;20076;-72
2021/12/07 12:06:30;;;;;;;2.50;1.20;;;;;;;;;;4979494;28;20030;-73
2021/12/07 12:08:57;;;;;;;2.13;1.10;;;;;;;;;;4981702;28;20050;-73
2021/12/07 12:11:41;;;;;;;1.27;0.90;;;;;;;;;;4982526;28;20652;-75
2021/12/07 12:14:18;;;;;;;2.10;0.90;;;;;;;;;;4981709;28;20112;-73
2021/12/07 12:17:06;;;;;;;3.45;1.70;;;;;;;;;;4980374;28;20099;-74
2021/12/07 12:19:39;;;;;;;3.85;1.00;;;;;;;;;;4980259;28;20138;-74
2021/12/07 12:22:29;;;;;;;2.75;1.35;;;;;;;;;;4983179;28;20038;-73
2021/12/07 12:24:59;;;;;;;1.00;0.80;;;;;;;;;;4980315;28;20038;-73
2021/12/07 12:27:34;;;;;;;4.45;1.50;;;;;;;;;;4981632;28;20876;-72
2021/12/07 12:30:20;;;;;;;2.63;1.75;;;;;;;;;;4980597;28;20054;-72
2021/12/07 12:32:53;;;;;;;2.20;1.20;;;;;;;;;;4982418;28;20034;-73
2021/12/07 12:35:26;;;;;;;0.70;0.70;;;;;;;;;;4980845;28;20123;-72
2021/12/07 12:37:52;;;;;;;1.30;1.13;;;;;;;;;;4980275;28;20042;-72
2021/12/07 12:40:29;;;;;;;4.28;1.08;;;;;;;;;;4979730;28;20044;-73
2021/12/07 12:42:57;;;;;;;1.10;1.00;;;;;;;;;;4982154;28;20034;-73
2021/12/07 12:45:35;;;;;;;1.73;1.17;;;;;;;;;;4978718;28;20034;-73
2021/12/07 12:48:17;;;;;;;4.15;1.55;;;;;;;;;;4979329;28;20099;-74
2021/12/07 12:50:42;;;;;;;0.90;0.90;;;;;;;;;;4980261;28;20050;-73
2021/12/07 12:53:16;;;;;;;2.97;0.90;;;;;;;;;;4984335;28;20102;-74
2021/12/07 12:55:49;;;;;;;2.15;1.08;;;;;;;;;;4979688;28;20038;-74
2021/12/07 12:58:17;;;;;;;2.42;1.05;;;;;;;;;;4981227;28;20550;-73
2021/12/07 13:01:13;;;;;;;7.20;2.15;;;;;;;;;;4979322;28;20052;-75
2021/12/07 13:03:43;;;;;;;1.70;1.15;;;;;;;;;;4978028;28;20381;-74
2021/12/07 13:06:32;;;;;;;2.10;1.50;;;;;;;;;;4980728;28;20030;-73
2021/12/07 13:09:05;;;;;;;1.27;1.17;;;;;;;;;;4999557;28;20095;-73
2021/12/07 13:11:42;;;;;;;0.85;0.82;;;;;;;;;;4981468;28;20030;-73
2021/12/07 13:14:30;;;;;;;3.42;1.40;;;;;;;;;;4982884;28;20030;-72
2021/12/07 13:17:13;;;;;;;2.63;1.00;;;;;;;;;;4980894;28;20046;-74
2021/12/07 13:20:06;;;;;;;1.38;1.10;;;;;;;;;;4980015;28;20049;-73
2021/12/07 13:22:44;;;;;;;4.10;1.25;;;;;;;;;;4993092;28;20057;-74
2021/12/07 13:25:14;;;;;;;2.78;1.10;;;;;;;;;;4979370;28;20022;-74
2021/12/07 13:28:17;;;;;;;1.65;0.90;;;;;;;;;;4980738;28;20550;-74
2021/12/07 13:30:55;;;;;;;1.20;1.08;;;;;;;;;;4977841;28;20091;-74
2021/12/07 13:33:40;;;;;;;3.47;1.50;;;;;;;;;;4977583;28;20425;-75
2021/12/07 13:36:27;;;;;;;7.65;1.48;;;;;;;;;;4981481;28;20051;-75
2021/12/07 13:38:52;;;;;;;3.67;1.23;;;;;;;;;;4981307;28;20050;-74
2021/12/07 13:41:20;;;;;;;1.10;1.00;;;;;;;;;;4980344;28;20861;-74
2021/12/07 13:43:50;;;;;;;2.85;1.42;;;;;;;;;;4979686;28;20088;-72
2021/12/07 13:46:25;;;;;;;3.08;1.45;;;;;;;;;;4980092;28;20075;-72
2021/12/07 13:48:53;;;;;;;1.10;0.88;;;;;;;;;;4980828;28;20057;-73
2021/12/07 13:51:20;;;;;;;1.13;0.90;;;;;;;;;;4980123;28;20087;-73
2021/12/07 13:53:47;;;;;;;1.98;0.95;;;;;;;;;;4980717;28;20045;-73
2021/12/07 13:56:13;;;;;;;3.88;1.55;;;;;;;;;;4978605;28;20642;-72
2021/12/07 13:59:00;;;;;;;3.70;1.00;;;;;;;;;;4980439;28;20062;-72
2021/12/07 14:01:29;;;;;;;3.47;1.70;;;;;;;;;;4978987;28;20061;-73
2021/12/07 14:03:56;;;;;;;2.53;1.10;;;;;;;;;;4977473;28;20073;-74
2021/12/07 14:06:22;;;;;;;5.28;1.45;;;;;;;;;;4978942;28;20030;-73
2021/12/07 14:08:48;;;;;;;4.32;1.95;;;;;;;;;;4980175;28;20035;-73
2021/12/07 14:11:16;;;;;;;4.35;1.15;;;;;;;;;;4980004;28;20038;-71
2021/12/07 14:13:44;;;;;;;1.05;0.90;;;;;;;;;;4986856;28;20945;-74
2021/12/07 14:16:12;;;;;;;4.38;1.17;;;;;;;;;;4997354;28;20034;-73
2021/12/07 14:19:30;;;;;;;2.35;1.15;;;;;;;;;;5000528;28;20694;-74
2021/12/07 14:21:55;;;;;;;1.48;1.08;;;;;;;;;;4995416;28;20139;-71
2021/12/07 14:24:21;;;;;;;4.40;1.50;;;;;;;;;;4983159;28;20086;-72
2021/12/07 14:26:48;;;;;;;1.58;1.00;;;;;;;;;;4982041;28;20091;-73
2021/12/07 14:29:20;;;;;;;3.80;1.30;;;;;;;;;;4978487;28;20092;-72
2021/12/07 14:31:50;;;;;;;7.50;1.25;;;;;;;;;;4981832;28;20042;-72
2021/12/07 14:34:20;;;;;;;2.20;1.17;;;;;;;;;;4982780;28;20030;-72
2021/12/07 14:36:59;;;;;;;4.93;1.63;;;;;;;;;;4983930;28;20211;-74
2021/12/07 14:39:29;;;;;;;1.27;0.90;;;;;;;;;;4980826;28;20045;-72
2021/12/07 14:42:07;;;;;;;3.05;1.25;;;;;;;;;;4984125;28;20121;-72
2021/12/07 14:44:39;;;;;;;1.92;1.00;;;;;;;;;;4980824;28;20469;-72
2021/12/07 14:47:07;;;;;;;1.48;1.20;;;;;;;;;;4985032;28;20038;-72
2021/12/07 14:49:36;;;;;;;2.70;1.45;;;;;;;;;;4981480;28;20569;-72
2021/12/07 14:52:07;;;;;;;1.92;1.25;;;;;;;;;;4982971;28;20451;-73
2021/12/07 14:54:32;;;;;;;6.80;1.38;;;;;;;;;;4977879;28;20091;-73
2021/12/07 14:56:58;;;;;;;3.80;1.42;;;;;;;;;;4979622;28;20035;-73
2021/12/07 14:59:23;;;;;;;3.53;1.50;;;;;;;;;;4981140;28;20073;-73
2021/12/07 15:01:53;;;;;;;1.77;1.15;;;;;;;;;;4965301;28;20095;-72
2021/12/07 15:04:19;;;;;;;1.95;1.40;;;;;;;;;;4976753;28;20042;-72
2021/12/07 15:06:56;;;;;;;6.85;1.60;;;;;;;;;;4979241;28;20404;-73
2021/12/07 15:09:22;;;;;;;2.20;1.20;;;;;;;;;;4980267;28;20111;-71
2021/12/07 15:11:50;;;;;;;3.88;1.50;;;;;;;;;;4982062;28;20054;-73
2021/12/07 15:14:19;;;;;;;1.42;1.23;;;;;;;;;;4978807;28;20045;-73
2021/12/07 15:16:47;;;;;;;1.92;1.40;;;;;;;;;;4979746;28;20034;-73
2021/12/07 15:19:13;;;;;;;5.85;1.35;;;;;;;;;;4980942;28;20053;-73
2021/12/07 15:21:40;;;;;;;5.10;1.73;;;;;;;;;;4978091;28;20038;-73
2021/12/07 15:24:18;;;;;;;2.55;1.10;;;;;;;;;;4977637;28;20044;-73
2021/12/07 15:26:48;;;;;;;3.22;1.33;;;;;;;;;;4979919;28;20035;-72
2021/12/07 15:29:24;;;;;;;2.05;1.30;;;;;;;;;;4980419;28;20073;-74
2021/12/07 15:31:53;;;;;;;2.60;1.40;;;;;;;;;;4984306;28;20073;-72
2021/12/07 15:34:21;;;;;;;5.05;1.60;;;;;;;;;;4979319;28;20117;-72
2021/12/07 15:36:55;;;;;;;5.57;2.35;;;;;;;;;;4982644;28;20789;-73
2021/12/07 15:39:23;;;;;;;3.13;1.80;;;;;;;;;;4978139;28;20038;-72
2021/12/07 15:41:49;;;;;;;7.63;2.03;;;;;;;;;;4981446;28;20042;-73
2021/12/07 15:44:16;;;;;;;3.25;1.98;;;;;;;;;;4979699;28;20033;-73
2021/12/07 15:46:51;;;;;;;3.72;2.30;;;;;;;;;;4981014;28;20696;-73
2021/12/07 15:49:29;;;;;;;5.78;2.47;;;;;;;;;;4980287;28;21414;-73
2021/12/07 15:51:58;;;;;;;4.22;2.63;;;;;;;;;;4981730;28;20041;-72
2021/12/07 15:54:25;;;;;;;4.38;2.45;;;;;;;;;;4978953;28;20038;-75
2021/12/07 15:56:59;;;;;;;3.78;2.53;;;;;;;;;;4982721;28;20034;-74
2021/12/07 15:59:25;;;;;;;6.05;4.20;;;;;;;;;;4979730;28;20038;-74
2021/12/07 16:01:51;;;;;;;20.92;12.23;;;;;;;;;;4983425;28;20495;-74
2021/12/07 16:04:22;;;;;;;68.53;28.10;;;;;;;;;;4980699;28;20034;-73
2021/12/07 16:06:47;;;;;;;78.00;31.77;;;;;;;;;;4987364;28;20704;-73
2021/12/07 16:09:17;;;;;;;12.40;6.35;;;;;;;;;;4979578;28;20050;-75
2021/12/07 16:11:43;;;;;;;8.02;4.40;;;;;;;;;;4981267;28;20047;-76
2021/12/07 16:14:09;;;;;;;4.95;3.05;;;;;;;;;;4980401;28;20450;-74
2021/12/07 16:16:38;;;;;;;12.60;3.38;;;;;;;;;;4982017;28;20501;-74
2021/12/07 16:19:06;;;;;;;3.45;2.70;;;;;;;;;;4985278;28;20111;-76
2021/12/07 16:21:33;;;;;;;7.10;3.50;;;;;;;;;;4980929;28;20098;-75
2021/12/07 16:24:00;;;;;;;5.75;2.95;;;;;;;;;;4980820;28;20042;-75
2021/12/07 16:26:27;;;;;;;9.00;3.78;;;;;;;;;;4979950;28;20103;-75
2021/12/07 16:28:58;;;;;;;7.43;3.90;;;;;;;;;;4981621;28;20064;-75
2021/12/07 16:31:25;;;;;;;8.88;4.40;;;;;;;;;;4980988;28;20038;-74
2021/12/07 16:33:52;;;;;;;11.13;5.47;;;;;;;;;;4982421;28;20163;-75
2021/12/07 16:36:19;;;;;;;8.70;4.57;;;;;;;;;;4980946;28;20031;-75